ENGM/OSL METAR and TAF weather

Enter ICAO airport designator
Station Type Date Time Source
ENGM METAR 2019/02/23 17:20 UTC NOAA

ENGM 231720Z 20005KT 0700 R19R/0900N R01R/0700N FG VV001 01/01 Q1032 TEMPO 0300 FG


Station Type Date Time Source
ENGM Decoded METAR 2019/02/23 17:20 UTC NOAA

Oslo / Gardermoen, Norway (ENGM) 60-12N 011-05E 204M
Feb 23, 2019 - 12:20 PM EST / 2019.02.23 1720 UTC
Wind: from the SSW (200 degrees) at 6 MPH (5 KT):0
Visibility: less than 1 mile:0
Sky conditions: obscured
Weather: fog
Temperature: 33 F (1 C)
Windchill: 26 F (-3 C):1
Dew Point: 33 F (1 C)
Relative Humidity: 100%
Pressure (altimeter): 30.47 in. Hg (1032 hPa)
ob: ENGM 231720Z 20005KT 0700 R19R/0900N R01R/0700N FG VV001 01/01 Q1032 TEMPO 0300 FG
cycle: 17

Station Type Date Time Source
ENGM TAF 2019/02/23 13:53 UTC NOAA

TAF
AMD ENGM 231344Z 2313/2412 18005KT 0400 FG VV001
TEMPO 2313/2408 3000 BR SCT002 BKN005
BECMG 2408/2410 32010KT 9999 SCT040


Example: see airport list